Time;durP1;ratioP1;P1;durP2;ratioP2;P2;SDS_P1;SDS_P2;PMS_P1;PMS_P2;Temp;Humidity;BMP_temperature;BMP_pressure;BME280_temperature;BME280_humidity;BME280_pressure;Samples;Min_cycle;Max_cycle;Signal;HPM_P1;HPM_P2
2022/12/17 13:06:49;;;;;;;1.63;0.55;;;;;;;;;;5060546;28;20477;-84
2022/12/17 13:09:38;;;;;;;2.75;0.98;;;;;;;;;;5063226;28;20048;-83
2022/12/17 13:12:19;;;;;;;1.30;1.20;;;;;;;;;;5073887;28;20044;-85
2022/12/17 13:14:51;;;;;;;4.78;0.82;;;;;;;;;;5075020;28;20048;-83
2022/12/17 13:17:28;;;;;;;4.90;3.00;;;;;;;;;;5072113;28;20079;-83
2022/12/17 13:20:02;;;;;;;0.77;0.77;;;;;;;;;;5074176;28;20576;-83
2022/12/17 13:22:33;;;;;;;1.55;1.45;;;;;;;;;;5060579;28;20048;-85
2022/12/17 13:25:16;;;;;;;1.80;1.70;;;;;;;;;;5073878;28;20055;-84
2022/12/17 13:27:45;;;;;;;1.08;0.98;;;;;;;;;;5074350;28;20052;-85
2022/12/17 13:30:22;;;;;;;1.50;0.73;;;;;;;;;;5072922;28;20221;-84
2022/12/17 13:32:56;;;;;;;0.90;0.90;;;;;;;;;;5071677;28;20049;-85
2022/12/17 13:35:29;;;;;;;2.15;1.27;;;;;;;;;;5076119;28;20049;-84
2022/12/17 13:38:03;;;;;;;0.93;0.93;;;;;;;;;;5063823;28;20045;-84
2022/12/17 13:40:36;;;;;;;0.52;0.52;;;;;;;;;;5068507;28;20517;-84
2022/12/17 13:43:04;;;;;;;1.05;0.98;;;;;;;;;;5073555;28;20133;-84
2022/12/17 13:45:34;;;;;;;1.48;1.17;;;;;;;;;;5075054;28;20416;-84
2022/12/17 13:48:03;;;;;;;2.10;1.95;;;;;;;;;;5078182;28;20549;-84
2022/12/17 13:50:31;;;;;;;2.55;2.38;;;;;;;;;;5079250;28;20135;-84
2022/12/17 13:53:10;;;;;;;0.50;0.50;;;;;;;;;;5077167;28;20116;-85
2022/12/17 13:55:41;;;;;;;0.73;0.63;;;;;;;;;;5066148;28;20040;-83
2022/12/17 13:58:21;;;;;;;0.88;0.80;;;;;;;;;;5068666;28;20139;-84
2022/12/17 14:00:49;;;;;;;1.95;1.10;;;;;;;;;;5035775;28;20054;-83
2022/12/17 14:03:22;;;;;;;0.50;0.50;;;;;;;;;;5068185;28;20060;-83
2022/12/17 14:06:11;;;;;;;3.22;1.25;;;;;;;;;;5067413;28;20456;-84
2022/12/17 14:08:41;;;;;;;3.47;1.77;;;;;;;;;;5073346;28;20056;-84
2022/12/17 14:13:58;;;;;;;0.77;0.77;;;;;;;;;;5074312;28;20048;-84
2022/12/17 14:16:27;;;;;;;1.55;1.25;;;;;;;;;;5072904;28;20512;-83
2022/12/17 14:18:56;;;;;;;1.77;0.70;;;;;;;;;;5074170;28;20063;-84
2022/12/17 14:21:25;;;;;;;0.63;0.63;;;;;;;;;;5069127;28;20055;-83
2022/12/17 14:23:57;;;;;;;1.40;1.05;;;;;;;;;;5072609;28;20100;-85
2022/12/17 14:26:25;;;;;;;2.25;1.05;;;;;;;;;;5072191;28;20049;-84
2022/12/17 14:28:56;;;;;;;1.90;1.30;;;;;;;;;;5070474;28;20075;-84
2022/12/17 14:31:26;;;;;;;1.13;1.02;;;;;;;;;;5069460;28;20041;-84
2022/12/17 14:34:06;;;;;;;2.92;1.98;;;;;;;;;;5072270;28;20056;-85
2022/12/17 14:36:36;;;;;;;1.90;1.13;;;;;;;;;;5067340;28;20048;-85
2022/12/17 14:39:10;;;;;;;1.75;1.08;;;;;;;;;;5071450;28;20053;-86
2022/12/17 14:44:31;;;;;;;1.50;1.35;;;;;;;;;;5048670;28;20049;-85
2022/12/17 14:47:08;;;;;;;1.05;0.90;;;;;;;;;;5075875;28;20048;-86
2022/12/17 14:49:38;;;;;;;2.72;2.08;;;;;;;;;;5065052;28;20129;-85
2022/12/17 14:52:13;;;;;;;5.03;2.03;;;;;;;;;;5070363;28;20064;-84
2022/12/17 14:54:41;;;;;;;;;;;;;;;;;;5073816;28;20131;-85
2022/12/17 14:57:23;;;;;;;0.22;0.22;;;;;;;;;;5071533;28;19920;-85
2022/12/17 14:59:51;;;;;;;0.52;0.40;;;;;;;;;;5074421;28;20045;-85
2022/12/17 15:02:22;;;;;;;0.32;0.32;;;;;;;;;;5071862;28;20036;-85
2022/12/17 15:04:52;;;;;;;1.58;0.82;;;;;;;;;;5071740;28;20048;-85
2022/12/17 15:07:23;;;;;;;3.20;0.60;;;;;;;;;;5073601;28;20572;-84
2022/12/17 15:09:52;;;;;;;3.80;1.25;;;;;;;;;;5073303;28;20056;-84
2022/12/17 15:12:23;;;;;;;1.30;1.25;;;;;;;;;;5073550;28;20048;-84
2022/12/17 15:14:51;;;;;;;1.35;1.25;;;;;;;;;;5066551;28;20056;-84
2022/12/17 15:17:20;;;;;;;0.70;0.70;;;;;;;;;;5073878;28;20041;-83
2022/12/17 15:19:49;;;;;;;3.97;0.60;;;;;;;;;;5066823;28;20041;-83
2022/12/17 15:22:23;;;;;;;0.38;0.38;;;;;;;;;;5071040;28;20078;-83
2022/12/17 15:24:52;;;;;;;1.52;0.93;;;;;;;;;;5076471;28;20485;-83
2022/12/17 15:27:20;;;;;;;1.23;0.93;;;;;;;;;;5076550;28;20538;-84
2022/12/17 15:29:50;;;;;;;2.83;0.93;;;;;;;;;;5074385;28;20485;-84
2022/12/17 15:32:20;;;;;;;2.03;0.77;;;;;;;;;;5065890;28;20052;-84
2022/12/17 15:34:49;;;;;;;0.85;0.73;;;;;;;;;;5066131;28;20037;-84
2022/12/17 15:37:18;;;;;;;2.50;1.33;;;;;;;;;;5071608;28;20365;-84
2022/12/17 15:39:54;;;;;;;1.10;0.70;;;;;;;;;;5072373;28;20129;-83
2022/12/17 15:45:10;;;;;;;1.63;1.52;;;;;;;;;;5075707;28;20045;-84
2022/12/17 15:47:39;;;;;;;1.02;0.93;;;;;;;;;;5073193;28;20090;-84
2022/12/17 15:50:08;;;;;;;1.00;0.90;;;;;;;;;;5072879;28;20052;-84
2022/12/17 15:52:36;;;;;;;1.30;0.60;;;;;;;;;;5072985;28;20163;-83
2022/12/17 15:55:05;;;;;;;1.52;1.27;;;;;;;;;;5072412;28;20087;-83
2022/12/17 15:57:33;;;;;;;1.38;1.27;;;;;;;;;;5072612;28;20056;-83
2022/12/17 16:00:02;;;;;;;0.38;0.38;;;;;;;;;;5069606;28;20087;-85
2022/12/17 16:02:32;;;;;;;0.40;0.40;;;;;;;;;;5055168;28;20049;-85
2022/12/17 16:05:01;;;;;;;1.00;1.00;;;;;;;;;;5072071;28;20045;-85
2022/12/17 16:07:29;;;;;;;1.80;1.67;;;;;;;;;;5069665;28;20432;-85
2022/12/17 16:09:57;;;;;;;1.27;1.17;;;;;;;;;;5061757;28;20079;-85
2022/12/17 16:12:33;;;;;;;0.73;0.50;;;;;;;;;;5069652;28;20052;-85
2022/12/17 16:15:01;;;;;;;0.40;0.40;;;;;;;;;;5063762;28;20529;-85
2022/12/17 16:17:30;;;;;;;1.20;1.20;;;;;;;;;;5070947;28;20455;-85
2022/12/17 16:19:59;;;;;;;0.40;0.40;;;;;;;;;;5072463;28;20049;-85
2022/12/17 16:22:28;;;;;;;0.65;0.50;;;;;;;;;;5067947;28;20578;-85
2022/12/17 16:24:57;;;;;;;0.90;0.90;;;;;;;;;;5067723;28;20048;-84
2022/12/17 16:27:25;;;;;;;1.20;0.85;;;;;;;;;;5072768;28;20575;-85
2022/12/17 16:29:55;;;;;;;2.50;2.40;;;;;;;;;;5063548;28;20045;-85
2022/12/17 16:32:23;;;;;;;1.70;1.60;;;;;;;;;;5068629;28;20071;-86
2022/12/17 16:34:52;;;;;;;1.05;0.88;;;;;;;;;;5066735;28;20075;-85
2022/12/17 16:37:22;;;;;;;1.17;0.90;;;;;;;;;;5069588;28;20101;-85
2022/12/17 16:39:51;;;;;;;3.35;1.58;;;;;;;;;;5063633;28;20049;-87
2022/12/17 16:42:27;;;;;;;0.50;0.50;;;;;;;;;;5057318;28;20041;-86
2022/12/17 16:44:55;;;;;;;0.68;0.65;;;;;;;;;;5066881;28;20045;-86
2022/12/17 16:47:24;;;;;;;2.92;1.60;;;;;;;;;;5072331;28;20048;-90
2022/12/17 16:49:53;;;;;;;5.28;0.68;;;;;;;;;;5065047;28;20088;-88
2022/12/17 16:52:22;;;;;;;0.73;0.73;;;;;;;;;;5065009;28;20059;-88
2022/12/17 16:54:52;;;;;;;0.35;0.35;;;;;;;;;;5067456;28;20112;-87
2022/12/17 16:57:20;;;;;;;0.73;0.73;;;;;;;;;;5062619;28;20053;-87
2022/12/17 16:59:49;;;;;;;0.45;0.45;;;;;;;;;;5065949;28;20057;-87
2022/12/17 17:02:17;;;;;;;0.70;0.70;;;;;;;;;;5060617;28;20571;-88
2022/12/17 17:04:46;;;;;;;5.97;0.82;;;;;;;;;;5066994;28;20513;-87
2022/12/17 17:07:15;;;;;;;0.98;0.98;;;;;;;;;;5063554;28;20056;-87
2022/12/17 17:09:45;;;;;;;1.80;1.70;;;;;;;;;;5064685;28;20048;-88
2022/12/17 17:12:15;;;;;;;1.10;0.93;;;;;;;;;;5066915;28;20563;-86
2022/12/17 17:14:44;;;;;;;1.27;0.88;;;;;;;;;;5065990;28;20058;-87
2022/12/17 17:17:12;;;;;;;0.90;0.90;;;;;;;;;;5053030;28;20056;-88
2022/12/17 17:19:41;;;;;;;0.82;0.75;;;;;;;;;;5065261;28;20048;-88
2022/12/17 17:22:09;;;;;;;1.15;1.15;;;;;;;;;;5069807;28;20056;-87
2022/12/17 17:24:38;;;;;;;1.35;1.25;;;;;;;;;;5070005;28;20448;-90
2022/12/17 17:27:09;;;;;;;1.05;0.90;;;;;;;;;;5070048;28;20053;-89
2022/12/17 17:29:37;;;;;;;0.70;0.65;;;;;;;;;;5054471;28;20059;-89
2022/12/17 17:32:06;;;;;;;1.00;0.93;;;;;;;;;;5059596;28;20079;-89
2022/12/17 17:34:41;;;;;;;4.60;1.27;;;;;;;;;;5064214;28;20069;-88
2022/12/17 17:37:09;;;;;;;2.03;1.67;;;;;;;;;;5068864;28;20059;-88
2022/12/17 17:39:38;;;;;;;1.52;1.45;;;;;;;;;;5068432;28;20091;-86
2022/12/17 17:42:08;;;;;;;1.55;1.05;;;;;;;;;;5061461;28;20634;-86
2022/12/17 17:44:37;;;;;;;0.57;0.57;;;;;;;;;;5072869;28;20074;-87
2022/12/17 17:47:05;;;;;;;2.03;1.63;;;;;;;;;;5073737;28;20508;-87
2022/12/17 17:49:34;;;;;;;1.33;1.23;;;;;;;;;;5064557;28;20076;-86
2022/12/17 17:52:02;;;;;;;3.95;2.38;;;;;;;;;;5066134;28;20467;-87
2022/12/17 17:54:39;;;;;;;2.45;1.30;;;;;;;;;;5066015;28;20073;-87
2022/12/17 17:57:10;;;;;;;2.08;1.75;;;;;;;;;;5067397;28;20168;-87
2022/12/17 17:59:39;;;;;;;6.25;1.33;;;;;;;;;;5060392;28;20079;-88
2022/12/17 18:02:07;;;;;;;1.88;1.75;;;;;;;;;;5061756;28;20060;-87
2022/12/17 18:04:36;;;;;;;1.35;1.25;;;;;;;;;;5072393;28;20056;-87
2022/12/17 18:07:04;;;;;;;7.10;2.05;;;;;;;;;;5073929;28;20140;-87
2022/12/17 18:09:53;;;;;;;2.30;1.60;;;;;;;;;;5062042;28;20055;-86
2022/12/17 18:15:09;;;;;;;0.65;0.65;;;;;;;;;;5064060;28;20520;-87
2022/12/17 18:17:44;;;;;;;0.82;0.82;;;;;;;;;;5071127;28;20507;-87
2022/12/17 18:20:12;;;;;;;0.68;0.68;;;;;;;;;;5071030;28;20059;-87
2022/12/17 18:22:41;;;;;;;0.70;0.70;;;;;;;;;;5071722;28;20556;-88
2022/12/17 18:25:09;;;;;;;0.20;0.20;;;;;;;;;;5067624;28;20564;-87
2022/12/17 18:27:39;;;;;;;1.33;1.10;;;;;;;;;;5072534;28;20271;-87
2022/12/17 18:30:08;;;;;;;6.93;2.22;;;;;;;;;;5059974;28;20135;-88
2022/12/17 18:32:37;;;;;;;1.65;1.55;;;;;;;;;;5071398;28;20056;-87
2022/12/17 18:35:06;;;;;;;3.10;2.20;;;;;;;;;;5066939;28;20053;-87
2022/12/17 18:37:34;;;;;;;1.48;1.00;;;;;;;;;;5074156;28;20104;-87
2022/12/17 18:40:03;;;;;;;6.93;1.33;;;;;;;;;;5068733;28;20068;-86
2022/12/17 18:45:18;;;;;;;0.75;0.75;;;;;;;;;;5069700;28;20048;-86
2022/12/17 18:47:47;;;;;;;0.50;0.50;;;;;;;;;;5068517;28;20131;-87
2022/12/17 18:50:15;;;;;;;1.33;0.50;;;;;;;;;;5072481;28;20136;-87
2022/12/17 18:52:45;;;;;;;0.90;0.80;;;;;;;;;;5070846;28;20353;-87
2022/12/17 18:55:13;;;;;;;0.90;0.90;;;;;;;;;;5073794;28;20067;-87
2022/12/17 18:57:42;;;;;;;1.08;0.75;;;;;;;;;;5073603;28;20147;-88
2022/12/17 19:00:11;;;;;;;6.60;1.27;;;;;;;;;;5061599;28;20041;-88
2022/12/17 19:02:41;;;;;;;2.88;1.83;;;;;;;;;;5065695;28;20051;-87
2022/12/17 19:05:10;;;;;;;8.57;1.92;;;;;;;;;;5073905;28;20063;-87
2022/12/17 19:07:38;;;;;;;1.00;0.98;;;;;;;;;;5073764;28;20048;-88
2022/12/17 19:10:07;;;;;;;2.08;1.13;;;;;;;;;;5070225;28;20457;-87
2022/12/17 19:12:36;;;;;;;1.50;1.08;;;;;;;;;;5068882;28;20586;-87
2022/12/17 19:15:05;;;;;;;0.50;0.50;;;;;;;;;;5066304;28;20042;-87
2022/12/17 19:17:33;;;;;;;0.93;0.93;;;;;;;;;;5072219;28;20036;-87
2022/12/17 19:20:03;;;;;;;1.65;1.55;;;;;;;;;;5058250;28;20508;-87
2022/12/17 19:22:31;;;;;;;3.38;1.77;;;;;;;;;;5059941;28;20273;-87
2022/12/17 19:25:00;;;;;;;3.70;1.65;;;;;;;;;;5064033;28;20033;-87
2022/12/17 19:27:29;;;;;;;0.50;0.50;;;;;;;;;;5087582;28;20079;-88
2022/12/17 19:29:57;;;;;;;4.45;1.40;;;;;;;;;;5071439;28;20049;-88
2022/12/17 19:32:25;;;;;;;1.13;0.75;;;;;;;;;;5074266;28;20052;-87
2022/12/17 19:34:54;;;;;;;1.00;0.98;;;;;;;;;;5074221;28;20048;-87
2022/12/17 19:37:23;;;;;;;1.77;1.67;;;;;;;;;;5062957;28;20052;-87
2022/12/17 19:39:52;;;;;;;4.95;2.60;;;;;;;;;;5072150;28;20126;-87
2022/12/17 19:42:27;;;;;;;3.15;1.17;;;;;;;;;;5067533;28;20135;-88
2022/12/17 19:45:04;;;;;;;0.95;0.95;;;;;;;;;;5072440;28;20550;-88
2022/12/17 19:47:33;;;;;;;0.35;0.35;;;;;;;;;;5065681;28;20508;-87
2022/12/17 19:50:02;;;;;;;0.55;0.47;;;;;;;;;;5073361;28;20127;-87
2022/12/17 19:52:32;;;;;;;3.33;1.98;;;;;;;;;;5072533;28;20594;-87
2022/12/17 19:55:01;;;;;;;4.13;2.30;;;;;;;;;;5073031;28;20098;-87
2022/12/17 19:57:30;;;;;;;0.75;0.75;;;;;;;;;;5061015;28;20053;-87
2022/12/17 19:59:58;;;;;;;2.13;1.92;;;;;;;;;;5071375;28;20113;-87
2022/12/17 20:02:27;;;;;;;1.27;0.98;;;;;;;;;;5073669;28;20052;-86
2022/12/17 20:05:00;;;;;;;6.20;1.10;;;;;;;;;;5073407;28;20496;-87
2022/12/17 20:07:29;;;;;;;1.45;1.35;;;;;;;;;;5088515;28;20060;-87
2022/12/17 20:09:58;;;;;;;1.08;0.98;;;;;;;;;;5067132;28;20049;-87
2022/12/17 20:12:27;;;;;;;1.75;1.65;;;;;;;;;;5072249;28;20049;-87
2022/12/17 20:14:55;;;;;;;2.33;0.73;;;;;;;;;;5073476;28;20078;-88
2022/12/17 20:17:24;;;;;;;0.80;0.80;;;;;;;;;;5064988;28;20053;-87
2022/12/17 20:19:55;;;;;;;1.23;0.65;;;;;;;;;;5068788;28;20036;-87
2022/12/17 20:22:25;;;;;;;1.38;1.00;;;;;;;;;;5071398;28;20253;-88
2022/12/17 20:24:53;;;;;;;0.55;0.55;;;;;;;;;;5070341;28;20053;-87
2022/12/17 20:27:23;;;;;;;0.45;0.45;;;;;;;;;;5071888;28;20052;-86
2022/12/17 20:29:53;;;;;;;0.60;0.60;;;;;;;;;;5071450;28;20082;-86
2022/12/17 20:32:22;;;;;;;0.25;0.25;;;;;;;;;;5073088;28;20052;-87
2022/12/17 20:34:50;;;;;;;0.40;0.40;;;;;;;;;;5070540;28;20040;-87
2022/12/17 20:37:18;;;;;;;0.80;0.80;;;;;;;;;;5074294;28;20063;-87
2022/12/17 20:39:47;;;;;;;1.13;1.13;;;;;;;;;;5072492;28;20068;-87
2022/12/17 20:42:16;;;;;;;2.05;0.70;;;;;;;;;;5074339;28;20468;-86
2022/12/17 20:44:46;;;;;;;3.28;1.33;;;;;;;;;;5069174;28;20055;-87
2022/12/17 20:47:20;;;;;;;1.58;0.68;;;;;;;;;;5070927;28;20052;-87
2022/12/17 20:49:49;;;;;;;1.15;1.10;;;;;;;;;;5072180;28;20055;-86
2022/12/17 20:52:17;;;;;;;0.60;0.60;;;;;;;;;;5074550;28;20083;-87
2022/12/17 20:54:45;;;;;;;4.25;0.93;;;;;;;;;;5066396;28;20041;-86
2022/12/17 20:57:14;;;;;;;0.40;0.40;;;;;;;;;;5071319;28;20054;-87
2022/12/17 20:59:42;;;;;;;1.73;0.70;;;;;;;;;;5064983;28;20052;-87
2022/12/17 21:02:12;;;;;;;1.52;0.55;;;;;;;;;;5063841;28;20088;-87
2022/12/17 21:04:41;;;;;;;0.93;0.93;;;;;;;;;;5073535;28;20048;-87
2022/12/17 21:07:09;;;;;;;0.80;0.80;;;;;;;;;;5060804;28;20045;-87
2022/12/17 21:09:38;;;;;;;1.10;1.00;;;;;;;;;;5071092;28;20573;-86
2022/12/17 21:12:08;;;;;;;0.82;0.82;;;;;;;;;;5075479;28;20063;-86
2022/12/17 21:14:37;;;;;;;1.13;0.88;;;;;;;;;;5070146;28;20032;-86
2022/12/17 21:17:08;;;;;;;0.40;0.40;;;;;;;;;;5082763;28;20572;-86
2022/12/17 21:19:38;;;;;;;3.45;1.00;;;;;;;;;;5070507;28;20045;-86
2022/12/17 21:22:07;;;;;;;0.35;0.35;;;;;;;;;;5073041;28;20082;-86
2022/12/17 21:24:37;;;;;;;0.45;0.45;;;;;;;;;;5072781;28;20148;-86
2022/12/17 21:27:06;;;;;;;0.40;0.40;;;;;;;;;;5065243;28;20052;-86
2022/12/17 21:29:42;;;;;;;0.93;0.45;;;;;;;;;;5071651;28;20079;-86
2022/12/17 21:32:10;;;;;;;0.20;0.20;;;;;;;;;;5066113;28;20048;-86
2022/12/17 21:34:40;;;;;;;4.50;0.98;;;;;;;;;;5070928;28;20471;-86
2022/12/17 21:37:09;;;;;;;0.73;0.60;;;;;;;;;;5069014;28;20068;-86
2022/12/17 21:39:38;;;;;;;0.43;0.43;;;;;;;;;;5068059;28;20137;-86
2022/12/17 21:44:52;;;;;;;1.42;1.40;;;;;;;;;;5072322;28;20428;-86
2022/12/17 21:47:21;;;;;;;0.75;0.52;;;;;;;;;;5072911;28;20052;-87
2022/12/17 21:49:51;;;;;;;0.73;0.73;;;;;;;;;;5059426;28;20219;-87
2022/12/17 21:52:20;;;;;;;2.28;1.17;;;;;;;;;;5073568;28;20491;-86
2022/12/17 21:54:48;;;;;;;1.08;0.73;;;;;;;;;;5075305;28;20052;-87
2022/12/17 21:57:17;;;;;;;0.30;0.30;;;;;;;;;;5073794;28;20053;-86
2022/12/17 21:59:45;;;;;;;6.03;1.58;;;;;;;;;;5073954;28;20053;-86
2022/12/17 22:02:13;;;;;;;2.55;1.75;;;;;;;;;;5074005;28;20222;-86
2022/12/17 22:04:42;;;;;;;2.22;1.08;;;;;;;;;;5074455;28;20053;-86
2022/12/17 22:07:12;;;;;;;0.82;0.82;;;;;;;;;;5073957;28;20131;-86
2022/12/17 22:09:49;;;;;;;1.13;1.02;;;;;;;;;;5066112;28;20122;-86
2022/12/17 22:15:23;;;;;;;1.23;0.65;;;;;;;;;;5075529;28;20262;-87
2022/12/17 22:18:00;;;;;;;2.03;1.55;;;;;;;;;;5074399;28;20251;-86
2022/12/17 22:20:28;;;;;;;1.73;1.23;;;;;;;;;;5090120;28;20067;-87
2022/12/17 22:22:58;;;;;;;0.32;0.32;;;;;;;;;;5077139;28;20041;-87
2022/12/17 22:25:27;;;;;;;1.75;0.98;;;;;;;;;;5065260;28;20064;-86
2022/12/17 22:27:55;;;;;;;0.98;0.95;;;;;;;;;;5062822;28;20608;-87
2022/12/17 22:33:10;;;;;;;2.80;1.58;;;;;;;;;;5068228;28;20053;-86
2022/12/17 22:36:01;;;;;;;0.63;0.63;;;;;;;;;;5068585;28;20070;-85
2022/12/17 22:38:51;;;;;;;1.23;1.10;;;;;;;;;;5061043;28;20049;-86
2022/12/17 22:44:46;;;;;;;0.38;0.38;;;;;;;;;;5066131;28;20056;-86
2022/12/17 22:47:21;;;;;;;0.75;0.75;;;;;;;;;;5070172;28;20055;-88
2022/12/17 22:49:49;;;;;;;3.90;1.30;;;;;;;;;;5061116;28;20049;-87
2022/12/17 22:52:18;;;;;;;0.43;0.43;;;;;;;;;;5064005;28;20052;-88
2022/12/17 22:54:49;;;;;;;7.72;1.17;;;;;;;;;;5073934;28;20143;-87
2022/12/17 22:57:18;;;;;;;0.40;0.40;;;;;;;;;;5074173;28;20078;-87
2022/12/17 23:00:08;;;;;;;1.20;1.10;;;;;;;;;;5069130;28;20126;-91
2022/12/17 23:02:37;;;;;;;1.90;1.33;;;;;;;;;;5060684;28;20049;-88
2022/12/17 23:05:06;;;;;;;0.82;0.60;;;;;;;;;;5070044;28;20076;-89
2022/12/17 23:07:34;;;;;;;3.00;2.45;;;;;;;;;;5070011;28;20048;-86
2022/12/17 23:10:04;;;;;;;0.50;0.50;;;;;;;;;;5067170;28;20068;-88
2022/12/17 23:12:51;;;;;;;0.40;0.40;;;;;;;;;;5065076;28;20135;-87
2022/12/17 23:15:21;;;;;;;1.48;1.38;;;;;;;;;;5072491;28;20561;-88
2022/12/17 23:17:49;;;;;;;0.43;0.43;;;;;;;;;;5063613;28;20420;-87
2022/12/17 23:20:18;;;;;;;0.30;0.30;;;;;;;;;;5057503;28;20130;-86
2022/12/17 23:22:47;;;;;;;0.93;0.75;;;;;;;;;;5072868;28;20050;-87
2022/12/17 23:25:17;;;;;;;0.30;0.30;;;;;;;;;;5072403;28;20203;-87
2022/12/17 23:27:46;;;;;;;2.47;1.48;;;;;;;;;;5065222;28;20133;-87
2022/12/17 23:30:15;;;;;;;0.68;0.68;;;;;;;;;;5070527;28;20076;-87
2022/12/17 23:32:44;;;;;;;3.67;1.75;;;;;;;;;;5066393;28;20078;-87
2022/12/17 23:35:13;;;;;;;1.55;1.20;;;;;;;;;;5064463;28;20041;-86
2022/12/17 23:37:42;;;;;;;1.95;1.40;;;;;;;;;;5069590;28;20048;-86
2022/12/17 23:40:11;;;;;;;2.75;1.55;;;;;;;;;;5072632;28;20120;-85
2022/12/17 23:42:41;;;;;;;0.32;0.32;;;;;;;;;;5065080;28;20059;-87
2022/12/17 23:45:10;;;;;;;0.75;0.75;;;;;;;;;;5068875;28;20056;-86
2022/12/17 23:47:39;;;;;;;1.02;1.00;;;;;;;;;;5065909;28;20048;-85
2022/12/17 23:50:10;;;;;;;0.60;0.60;;;;;;;;;;5054874;28;20159;-87
2022/12/17 23:52:39;;;;;;;3.08;1.10;;;;;;;;;;5071338;28;20048;-87
2022/12/17 23:55:08;;;;;;;0.85;0.80;;;;;;;;;;5063591;28;20139;-86
2022/12/17 23:57:36;;;;;;;0.90;0.82;;;;;;;;;;5068564;28;20056;-87
